CPX655 Details

Departure: Key West International Airport (KEYW)
Arrival: Miami International Airport (KMIA)
Route: CARNU DVALL DVALL3


Current Weather Information
KEYW 250953Z 05008G15KT 10SM FEW029 FEW045 25/21 A3001 RMK AO2 SLP161 T02500206
KMIA 250953Z 05005KT 10SM SCT033 25/18 A3003 RMK AO2 SLP170 T02500178 $